createdAt,value
2022-09-21T00:01:00.928Z,10.38
2022-09-21T00:02:03.538Z,10.37
2022-09-21T00:03:06.463Z,10.39
2022-09-21T00:04:09.125Z,10.42
2022-09-21T00:05:11.703Z,10.44
2022-09-21T00:06:14.744Z,10.44
2022-09-21T00:07:17.376Z,10.44
2022-09-21T00:08:19.816Z,10.47
2022-09-21T00:09:22.251Z,10.49
2022-09-21T00:10:26.057Z,10.52
2022-09-21T00:11:28.493Z,10.55
2022-09-21T00:12:30.969Z,10.58
2022-09-21T00:13:33.425Z,10.58
2022-09-21T00:14:35.851Z,10.61
2022-09-21T00:15:38.368Z,10.61
2022-09-21T00:16:41.771Z,10.62
2022-09-21T00:17:44.253Z,10.62
2022-09-21T00:18:46.693Z,10.62
2022-09-21T00:19:49.164Z,10.64
2022-09-21T00:20:51.860Z,10.63
2022-09-21T00:21:54.298Z,10.61
2022-09-21T00:22:56.839Z,10.59
2022-09-21T00:23:59.316Z,10.58
2022-09-21T00:25:01.772Z,10.56
2022-09-21T00:26:04.848Z,10.55
2022-09-21T00:27:07.311Z,10.55
2022-09-21T00:28:09.754Z,10.56
2022-09-21T00:29:12.301Z,10.54
2022-09-21T00:30:15.562Z,10.53
2022-09-21T00:31:18.142Z,10.53
2022-09-21T00:32:21.208Z,10.49
2022-09-21T00:33:23.655Z,10.51
2022-09-21T00:34:26.104Z,10.50
2022-09-21T00:35:28.582Z,10.51
2022-09-21T00:36:31.893Z,10.51
2022-09-21T00:37:34.348Z,10.52
2022-09-21T00:38:36.851Z,10.51
2022-09-21T00:39:39.351Z,10.52
2022-09-21T00:40:42.220Z,10.51
2022-09-21T00:41:44.702Z,10.50
2022-09-21T00:42:47.288Z,10.51
2022-09-21T00:43:49.791Z,10.52
2022-09-21T00:44:52.213Z,10.53
2022-09-21T00:45:54.684Z,10.52
2022-09-21T00:46:57.668Z,10.52
2022-09-21T00:48:00.132Z,10.51
2022-09-21T00:49:02.585Z,10.49
2022-09-21T00:50:05.336Z,10.49
2022-09-21T00:51:07.780Z,10.47
2022-09-21T00:52:10.246Z,10.46
2022-09-21T00:53:12.995Z,10.45
2022-09-21T00:54:15.475Z,10.47
2022-09-21T00:55:17.927Z,10.47
2022-09-21T00:56:22.183Z,10.49
2022-09-21T00:57:24.658Z,10.51
2022-09-21T00:58:27.100Z,10.57
2022-09-21T00:59:30.427Z,10.58
2022-09-21T01:00:33.528Z,10.61
2022-09-21T01:01:35.965Z,10.63
2022-09-21T01:02:38.981Z,10.66
2022-09-21T01:03:41.420Z,10.69
2022-09-21T01:04:43.861Z,10.72
2022-09-21T01:05:46.301Z,10.74
2022-09-21T01:06:48.991Z,10.72
2022-09-21T01:07:51.459Z,10.79
2022-09-21T01:08:53.905Z,10.83
2022-09-21T01:09:56.654Z,10.88
2022-09-21T01:10:59.603Z,10.90
2022-09-21T01:12:02.043Z,10.94
2022-09-21T01:13:04.566Z,10.98
2022-09-21T01:14:07.993Z,11.02
2022-09-21T01:15:10.691Z,11.03
2022-09-21T01:16:14.923Z,11.08
2022-09-21T01:17:17.530Z,11.10
2022-09-21T01:18:20.030Z,11.10
2022-09-21T01:19:22.478Z,11.12
2022-09-21T01:20:25.828Z,11.13
2022-09-21T01:21:28.284Z,11.12
2022-09-21T01:22:30.713Z,11.12
2022-09-21T01:23:33.207Z,11.11
2022-09-21T01:24:35.829Z,11.12
2022-09-21T01:25:38.583Z,11.15
2022-09-21T01:26:41.530Z,11.16
2022-09-21T01:27:44.022Z,11.16
2022-09-21T01:28:46.494Z,11.10
2022-09-21T01:29:48.949Z,11.08
2022-09-21T01:30:51.898Z,11.12
2022-09-21T01:31:54.379Z,11.15
2022-09-21T01:32:56.886Z,11.11
2022-09-21T01:33:59.604Z,11.08
2022-09-21T01:35:02.270Z,11.02
2022-09-21T01:36:04.929Z,11.02
2022-09-21T01:37:07.374Z,11.01
2022-09-21T01:38:09.813Z,11.00
2022-09-21T01:39:12.285Z,11.00
2022-09-21T01:40:15.933Z,10.96
2022-09-21T01:41:18.462Z,11.00
2022-09-21T01:42:20.900Z,11.02
2022-09-21T01:43:23.554Z,10.98
2022-09-21T01:44:26.027Z,10.96
2022-09-21T01:45:28.644Z,10.94
2022-09-21T01:46:31.629Z,10.88
2022-09-21T01:47:34.116Z,10.92
2022-09-21T01:48:36.551Z,10.94
2022-09-21T01:49:39.032Z,10.91
2022-09-21T01:50:42.316Z,10.90
2022-09-21T01:51:44.793Z,10.88
2022-09-21T01:52:47.227Z,10.92
2022-09-21T01:53:49.684Z,10.90
2022-09-21T01:54:52.156Z,10.93
2022-09-21T01:55:54.603Z,10.87
2022-09-21T01:56:57.346Z,10.89
2022-09-21T01:57:59.993Z,10.87
2022-09-21T01:59:02.437Z,10.83
2022-09-21T02:00:05.436Z,10.83
2022-09-21T02:01:07.967Z,10.80
2022-09-21T02:02:11.157Z,10.79
2022-09-21T02:03:14.012Z,10.74
2022-09-21T02:04:16.465Z,10.71
2022-09-21T02:05:19.147Z,10.76
2022-09-21T02:06:23.715Z,10.82
2022-09-21T02:07:26.193Z,10.76
2022-09-21T02:08:28.635Z,10.79
2022-09-21T02:09:31.077Z,10.82
2022-09-21T02:10:33.971Z,10.86
2022-09-21T02:11:36.414Z,10.87
2022-09-21T02:12:38.876Z,10.88
2022-09-21T02:13:41.320Z,10.85
2022-09-21T02:14:43.779Z,10.89
2022-09-21T02:15:46.372Z,10.92
2022-09-21T02:16:48.999Z,10.90
2022-09-21T02:17:51.447Z,10.97
2022-09-21T02:18:53.996Z,11.02
2022-09-21T02:19:56.436Z,11.04
2022-09-21T02:20:59.409Z,11.03
2022-09-21T02:22:02.085Z,11.06
2022-09-21T02:23:04.748Z,11.11
2022-09-21T02:24:07.193Z,11.14
2022-09-21T02:25:09.637Z,11.18
2022-09-21T02:26:12.729Z,11.15
2022-09-21T02:27:15.166Z,11.15
2022-09-21T02:28:17.815Z,11.11
2022-09-21T02:29:20.484Z,11.14
2022-09-21T02:30:23.440Z,11.18
2022-09-21T02:31:26.168Z,11.18
2022-09-21T02:32:28.761Z,11.17
2022-09-21T02:33:31.209Z,11.16
2022-09-21T02:34:33.644Z,11.19
2022-09-21T02:35:36.087Z,11.20
2022-09-21T02:36:38.849Z,11.18
2022-09-21T02:37:41.319Z,11.21
2022-09-21T02:38:43.867Z,11.23
2022-09-21T02:39:46.307Z,11.22
2022-09-21T02:40:49.148Z,11.20
2022-09-21T02:41:51.831Z,11.23
2022-09-21T02:42:54.515Z,11.22
2022-09-21T02:43:56.998Z,11.26
2022-09-21T02:44:59.533Z,11.26
2022-09-21T02:46:02.169Z,11.29
2022-09-21T02:47:04.629Z,11.25
2022-09-21T02:48:07.106Z,11.29
2022-09-21T02:49:09.557Z,11.27
2022-09-21T02:50:13.211Z,11.24
2022-09-21T02:51:15.654Z,11.24
2022-09-21T02:52:18.231Z,11.25
2022-09-21T02:53:20.867Z,11.22
2022-09-21T02:54:23.343Z,11.22
2022-09-21T02:55:25.784Z,11.23
2022-09-21T02:56:29.864Z,11.21
2022-09-21T02:57:32.328Z,11.21
2022-09-21T02:58:34.864Z,11.22
2022-09-21T02:59:37.501Z,11.20
2022-09-21T03:00:40.549Z,11.18
2022-09-21T03:01:43.164Z,11.19
2022-09-21T03:02:45.762Z,11.17
2022-09-21T03:03:48.238Z,11.15
2022-09-21T03:04:50.726Z,11.10
2022-09-21T03:05:53.164Z,11.10
2022-09-21T03:06:55.903Z,11.14
2022-09-21T03:07:58.407Z,11.16
2022-09-21T03:09:00.928Z,11.16
2022-09-21T03:10:03.566Z,11.16
2022-09-21T03:11:05.999Z,11.13
2022-09-21T03:12:08.636Z,11.04
2022-09-21T03:13:11.275Z,10.93
2022-09-21T03:14:13.716Z,10.93
2022-09-21T03:15:16.154Z,10.94
2022-09-21T03:16:19.357Z,10.94
2022-09-21T03:17:22.178Z,10.92
2022-09-21T03:18:24.790Z,10.94
2022-09-21T03:19:27.236Z,10.97
2022-09-21T03:20:30.596Z,10.99
2022-09-21T03:21:33.235Z,11.06
2022-09-21T03:22:35.716Z,11.08
2022-09-21T03:23:38.228Z,11.07
2022-09-21T03:24:40.663Z,11.10
2022-09-21T03:25:43.100Z,11.11
2022-09-21T03:26:45.647Z,11.10
2022-09-21T03:27:48.403Z,11.03
2022-09-21T03:28:50.932Z,10.92
2022-09-21T03:29:53.373Z,10.91
2022-09-21T03:30:56.061Z,10.88
2022-09-21T03:31:58.783Z,10.78
2022-09-21T03:33:01.248Z,10.72
2022-09-21T03:34:03.718Z,10.74
2022-09-21T03:35:06.152Z,10.75
2022-09-21T03:36:09.100Z,10.75
2022-09-21T03:37:11.532Z,10.75
2022-09-21T03:38:14.049Z,10.75
2022-09-21T03:39:16.574Z,10.78
2022-09-21T03:40:19.476Z,10.80
2022-09-21T03:41:22.482Z,10.79
2022-09-21T03:42:25.408Z,10.80
2022-09-21T03:43:28.046Z,10.78
2022-09-21T03:44:30.513Z,10.80
2022-09-21T03:45:33.051Z,10.79
2022-09-21T03:46:35.853Z,10.73
2022-09-21T03:47:38.359Z,10.69
2022-09-21T03:48:40.813Z,10.67
2022-09-21T03:49:43.482Z,10.68
2022-09-21T03:50:46.130Z,10.69
2022-09-21T03:51:48.634Z,10.68
2022-09-21T03:52:51.094Z,10.63
2022-09-21T03:53:53.536Z,10.54
2022-09-21T03:54:56.233Z,10.56
2022-09-21T03:55:58.666Z,10.56
2022-09-21T03:57:01.218Z,10.57
2022-09-21T03:58:03.651Z,10.58
2022-09-21T03:59:08.606Z,10.57
2022-09-21T04:00:11.458Z,10.59
2022-09-21T04:01:14.463Z,10.62
2022-09-21T04:02:17.782Z,10.67
2022-09-21T04:03:20.325Z,10.71
2022-09-21T04:04:22.769Z,10.74
2022-09-21T04:05:25.270Z,10.77
2022-09-21T04:06:28.031Z,10.77
2022-09-21T04:07:30.466Z,10.78
2022-09-21T04:08:32.922Z,10.81
2022-09-21T04:09:35.426Z,10.85
2022-09-21T04:10:38.088Z,10.87
2022-09-21T04:11:40.530Z,10.90
2022-09-21T04:12:42.997Z,10.91
2022-09-21T04:13:45.464Z,10.91
2022-09-21T04:14:47.925Z,10.91
2022-09-21T04:15:50.411Z,10.90
2022-09-21T04:16:53.279Z,10.95
2022-09-21T04:17:55.709Z,10.96
2022-09-21T04:18:58.147Z,10.97
2022-09-21T04:20:00.619Z,10.98
2022-09-21T04:21:03.399Z,11.01
2022-09-21T04:22:06.556Z,11.00
2022-09-21T04:23:09.003Z,11.02
2022-09-21T04:24:13.275Z,11.08
2022-09-21T04:25:17.555Z,11.12
2022-09-21T04:26:21.865Z,11.12
2022-09-21T04:27:26.111Z,11.12
2022-09-21T04:28:30.371Z,11.11
2022-09-21T04:29:34.623Z,11.09
2022-09-21T04:30:38.871Z,11.15
2022-09-21T04:31:41.335Z,11.18
2022-09-21T04:32:45.595Z,11.22
2022-09-21T04:33:49.845Z,11.26
2022-09-21T04:34:54.114Z,11.33
2022-09-21T04:35:58.370Z,11.44
2022-09-21T04:37:02.768Z,11.53
2022-09-21T04:38:06.886Z,11.64
2022-09-21T04:39:11.140Z,11.70
2022-09-21T04:40:15.453Z,11.68
2022-09-21T04:41:18.898Z,11.75
2022-09-21T04:42:21.877Z,11.76
2022-09-21T04:43:24.512Z,11.84
2022-09-21T04:44:28.747Z,11.86
2022-09-21T04:45:31.185Z,11.88
2022-09-21T04:46:34.137Z,12.00
2022-09-21T04:47:38.977Z,11.93
2022-09-21T04:48:41.512Z,12.01
2022-09-21T04:49:43.954Z,12.07
2022-09-21T04:50:46.670Z,12.12
2022-09-21T04:51:49.113Z,12.21
2022-09-21T04:52:51.601Z,12.23
2022-09-21T04:53:54.045Z,12.23
2022-09-21T04:54:56.483Z,12.28
2022-09-21T04:55:58.932Z,12.21
2022-09-21T04:57:01.672Z,12.21
2022-09-21T04:58:04.159Z,12.26
2022-09-21T04:59:06.774Z,12.26
2022-09-21T05:00:10.312Z,12.30
2022-09-21T05:01:12.832Z,12.26
2022-09-21T05:02:15.989Z,12.29
2022-09-21T05:03:18.491Z,12.24
2022-09-21T05:04:21.178Z,12.30
2022-09-21T05:05:23.691Z,12.30
2022-09-21T05:06:26.129Z,12.30
2022-09-21T05:07:28.570Z,12.31
2022-09-21T05:08:31.057Z,12.35
2022-09-21T05:09:33.502Z,12.33
2022-09-21T05:10:36.050Z,12.30
2022-09-21T05:11:38.500Z,12.27
2022-09-21T05:12:41.302Z,12.27
2022-09-21T05:13:44.259Z,12.24
2022-09-21T05:14:46.700Z,12.21
2022-09-21T05:15:49.168Z,12.25
2022-09-21T05:16:51.790Z,12.21
2022-09-21T05:17:54.228Z,12.23
2022-09-21T05:18:56.718Z,12.31
2022-09-21T05:19:59.154Z,12.32
2022-09-21T05:21:01.817Z,12.38
2022-09-21T05:22:04.447Z,12.34
2022-09-21T05:23:06.894Z,12.35
2022-09-21T05:24:09.562Z,12.29
2022-09-21T05:25:12.003Z,12.34
2022-09-21T05:26:15.169Z,12.32
2022-09-21T05:27:17.680Z,12.25
2022-09-21T05:28:20.179Z,12.18
2022-09-21T05:29:23.014Z,12.20
2022-09-21T05:30:25.602Z,12.23
2022-09-21T05:31:28.290Z,12.26
2022-09-21T05:32:30.816Z,12.27
2022-09-21T05:33:33.259Z,12.31
2022-09-21T05:34:36.875Z,12.36
2022-09-21T05:35:39.561Z,12.21
2022-09-21T05:36:42.109Z,12.25
2022-09-21T05:37:44.572Z,12.11
2022-09-21T05:38:47.032Z,12.07
2022-09-21T05:39:49.518Z,12.12
2022-09-21T05:40:52.279Z,12.20
2022-09-21T05:41:54.715Z,12.14
2022-09-21T05:42:57.156Z,12.16
2022-09-21T05:43:59.955Z,12.11
2022-09-21T05:45:02.429Z,11.95
2022-09-21T05:46:05.004Z,12.06
2022-09-21T05:47:07.549Z,12.10
2022-09-21T05:48:09.994Z,12.17
2022-09-21T05:49:12.449Z,12.19
2022-09-21T05:50:15.026Z,12.21
2022-09-21T05:51:17.465Z,12.21
2022-09-21T05:52:19.918Z,12.14
2022-09-21T05:53:22.397Z,12.19
2022-09-21T05:54:24.984Z,12.18
2022-09-21T05:55:27.472Z,12.18
2022-09-21T05:56:30.111Z,12.15
2022-09-21T05:57:32.561Z,12.14
2022-09-21T05:58:35.005Z,12.15
2022-09-21T05:59:37.452Z,12.21
2022-09-21T06:00:40.221Z,12.26
2022-09-21T06:01:42.732Z,12.31
2022-09-21T06:02:45.603Z,12.40
2022-09-21T06:03:48.152Z,12.37
2022-09-21T06:04:50.799Z,12.42
2022-09-21T06:05:53.267Z,12.60
2022-09-21T06:06:55.911Z,12.70
2022-09-21T06:07:58.352Z,12.52
2022-09-21T06:09:00.794Z,12.48
2022-09-21T06:10:03.873Z,12.45
2022-09-21T06:11:06.390Z,12.47
2022-09-21T06:12:08.830Z,12.51
2022-09-21T06:13:11.275Z,12.49
2022-09-21T06:14:13.718Z,12.41
2022-09-21T06:15:16.358Z,12.50
2022-09-21T06:16:19.064Z,12.55
2022-09-21T06:17:21.578Z,12.55
2022-09-21T06:18:24.019Z,12.56
2022-09-21T06:19:26.464Z,12.50
2022-09-21T06:20:29.019Z,12.32
2022-09-21T06:21:31.730Z,12.34
2022-09-21T06:22:34.289Z,12.39
2022-09-21T06:23:36.848Z,12.44
2022-09-21T06:24:39.298Z,12.51
2022-09-21T06:25:41.746Z,12.50
2022-09-21T06:26:44.445Z,12.49
2022-09-21T06:27:46.955Z,12.53
2022-09-21T06:28:49.408Z,12.57
2022-09-21T06:29:51.845Z,12.57
2022-09-21T06:30:54.516Z,12.61
2022-09-21T06:31:56.975Z,12.66
2022-09-21T06:32:59.788Z,12.55
2022-09-21T06:34:02.216Z,12.42
2022-09-21T06:35:04.661Z,12.44
2022-09-21T06:36:07.209Z,12.54
2022-09-21T06:37:09.710Z,12.58
2022-09-21T06:38:12.158Z,12.61
2022-09-21T06:39:14.925Z,12.60
2022-09-21T06:40:17.635Z,12.62
2022-09-21T06:41:21.554Z,12.58
2022-09-21T06:42:24.224Z,12.48
2022-09-21T06:43:26.699Z,12.52
2022-09-21T06:44:29.140Z,12.57
2022-09-21T06:45:31.617Z,12.63
2022-09-21T06:46:34.255Z,12.68
2022-09-21T06:47:36.734Z,12.62
2022-09-21T06:48:39.199Z,12.74
2022-09-21T06:49:42.648Z,12.76
2022-09-21T06:50:45.826Z,12.77
2022-09-21T06:51:48.265Z,12.70
2022-09-21T06:52:50.732Z,12.68
2022-09-21T06:53:53.179Z,12.68
2022-09-21T06:54:55.631Z,12.73
2022-09-21T06:55:58.069Z,12.50
2022-09-21T06:57:00.946Z,12.64
2022-09-21T06:58:03.554Z,12.68
2022-09-21T06:59:06.012Z,12.71
2022-09-21T07:00:08.955Z,12.86
2022-09-21T07:01:11.525Z,12.83
2022-09-21T07:02:14.384Z,12.85
2022-09-21T07:03:17.041Z,12.92
2022-09-21T07:04:24.430Z,12.83
2022-09-21T07:05:23.822Z,12.89
2022-09-21T07:06:26.470Z,12.84
2022-09-21T07:07:28.910Z,12.69
2022-09-21T07:10:40.242Z,13.00
2022-09-21T07:11:42.693Z,12.97
2022-09-21T07:12:45.478Z,12.98
2022-09-21T07:13:47.946Z,12.97
2022-09-21T07:14:50.396Z,12.91
2022-09-21T07:15:53.483Z,12.98
2022-09-21T07:16:56.281Z,13.04
2022-09-21T07:18:06.139Z,13.09
2022-09-21T07:19:11.157Z,13.14
2022-09-21T07:20:08.145Z,13.23
2022-09-21T07:21:11.246Z,13.24
2022-09-21T07:22:13.730Z,13.30
2022-09-21T07:23:16.199Z,13.33
2022-09-21T07:24:18.709Z,13.35
2022-09-21T07:25:21.142Z,13.45
2022-09-21T07:26:24.003Z,13.58
2022-09-21T07:27:26.435Z,13.69
2022-09-21T07:28:28.931Z,13.78
2022-09-21T07:29:31.457Z,13.82
2022-09-21T07:30:33.989Z,13.89
2022-09-21T07:31:36.479Z,13.91
2022-09-21T07:32:39.059Z,13.99
2022-09-21T07:33:41.526Z,14.07
2022-09-21T07:34:44.009Z,14.08
2022-09-21T07:35:46.345Z,14.20
2022-09-21T07:36:49.079Z,14.19
2022-09-21T07:37:51.519Z,14.24
2022-09-21T07:38:53.977Z,14.44
2022-09-21T07:39:56.437Z,14.54
2022-09-21T07:40:59.217Z,14.64
2022-09-21T07:42:01.859Z,14.73
2022-09-21T07:43:04.296Z,14.76
2022-09-21T07:44:06.884Z,14.98
2022-09-21T07:45:09.639Z,15.04
2022-09-21T07:46:13.512Z,15.27
2022-09-21T07:47:15.952Z,15.29
2022-09-21T07:48:18.384Z,15.42
2022-09-21T07:49:20.873Z,15.28
2022-09-21T07:50:23.739Z,15.43
2022-09-21T07:51:26.204Z,15.52
2022-09-21T07:52:28.647Z,15.59
2022-09-21T07:53:31.082Z,15.78
2022-09-21T07:54:33.534Z,16.10
2022-09-21T07:55:36.045Z,16.41
2022-09-21T07:56:38.577Z,16.59
2022-09-21T07:57:41.017Z,16.69
2022-09-21T07:58:43.455Z,16.76
2022-09-21T07:59:46.000Z,16.81
2022-09-21T08:00:48.760Z,16.81
2022-09-21T08:01:51.261Z,16.74
2022-09-21T08:02:53.706Z,16.72
2022-09-21T08:03:56.131Z,16.69
2022-09-21T08:04:58.594Z,16.61
2022-09-21T08:06:01.054Z,16.37
2022-09-21T08:07:03.484Z,16.24
2022-09-21T08:08:05.923Z,16.29
2022-09-21T08:09:08.382Z,16.33
2022-09-21T08:10:11.717Z,16.36
2022-09-21T08:11:14.195Z,16.42
2022-09-21T08:12:16.892Z,16.38
2022-09-21T08:13:19.359Z,16.44
2022-09-21T08:14:26.132Z,16.41
2022-09-21T08:15:47.643Z,16.32
2022-09-21T08:16:30.616Z,16.18
2022-09-21T08:17:33.234Z,16.17
2022-09-21T08:18:35.673Z,16.20
2022-09-21T08:19:38.115Z,16.16
2022-09-21T08:20:40.659Z,16.20
2022-09-21T08:21:43.175Z,16.24
2022-09-21T08:22:45.637Z,16.35
2022-09-21T08:23:48.059Z,16.12
2022-09-21T08:24:50.493Z,16.38
2022-09-21T08:25:52.971Z,16.59
2022-09-21T08:26:55.858Z,16.85
2022-09-21T08:27:58.694Z,16.94
2022-09-21T08:29:01.130Z,16.92
2022-09-21T08:30:03.579Z,16.90
2022-09-21T08:31:06.063Z,16.88
2022-09-21T08:32:08.585Z,16.98
2022-09-21T08:33:11.159Z,17.18
2022-09-21T08:34:13.602Z,17.38
2022-09-21T08:35:16.037Z,17.41
2022-09-21T08:36:18.808Z,17.58
2022-09-21T08:37:21.295Z,17.78
2022-09-21T08:38:23.737Z,17.97
2022-09-21T08:39:26.170Z,18.10
2022-09-21T08:40:28.851Z,18.25
2022-09-21T08:41:31.593Z,18.34
2022-09-21T08:42:34.295Z,18.34
2022-09-21T08:43:36.780Z,18.21
2022-09-21T08:44:39.203Z,17.98
2022-09-21T08:45:41.637Z,17.79
2022-09-21T08:46:44.339Z,17.64
2022-09-21T08:47:46.946Z,17.52
2022-09-21T08:48:49.398Z,17.50
2022-09-21T08:49:51.839Z,17.54
2022-09-21T08:50:54.312Z,17.61
2022-09-21T08:51:56.774Z,17.72
2022-09-21T08:52:59.745Z,17.69
2022-09-21T08:54:02.226Z,17.53
2022-09-21T08:55:04.696Z,17.78
2022-09-21T08:56:07.634Z,17.98
2022-09-21T08:57:10.078Z,18.23
2022-09-21T08:58:12.560Z,18.40
2022-09-21T08:59:14.996Z,18.41
2022-09-21T09:00:17.757Z,18.36
2022-09-21T09:01:20.489Z,18.47
2022-09-21T09:02:23.085Z,18.67
2022-09-21T09:03:25.626Z,18.88
2022-09-21T09:04:28.082Z,19.17
2022-09-21T09:05:30.537Z,19.36
2022-09-21T09:06:33.174Z,19.57
2022-09-21T09:07:35.613Z,19.75
2022-09-21T09:08:38.094Z,19.87
2022-09-21T09:09:40.526Z,20.04
2022-09-21T09:10:43.174Z,20.28
2022-09-21T09:11:45.648Z,20.43
2022-09-21T09:12:48.093Z,20.34
2022-09-21T09:13:50.576Z,20.41
2022-09-21T09:14:53.048Z,20.45
2022-09-21T09:15:55.506Z,20.57
2022-09-21T09:16:58.238Z,20.54
2022-09-21T09:18:00.686Z,20.39
2022-09-21T09:19:03.187Z,20.44
2022-09-21T09:20:06.038Z,20.56
2022-09-21T09:21:08.494Z,20.23
2022-09-21T09:22:10.945Z,19.88
2022-09-21T09:23:13.398Z,20.21
2022-09-21T09:24:15.871Z,20.08
2022-09-21T09:25:18.325Z,20.61
2022-09-21T09:26:21.074Z,20.61
2022-09-21T09:27:23.535Z,20.87
2022-09-21T09:28:25.976Z,20.97
2022-09-21T09:29:28.464Z,20.91
2022-09-21T09:30:31.122Z,20.89
2022-09-21T09:31:33.596Z,20.56
2022-09-21T09:32:36.200Z,20.42
2022-09-21T09:33:38.651Z,20.52
2022-09-21T09:34:41.130Z,20.57
2022-09-21T09:35:43.576Z,20.54
2022-09-21T09:36:58.446Z,20.47
2022-09-21T09:37:50.595Z,20.66
2022-09-21T09:38:53.037Z,20.67
2022-09-21T09:39:55.594Z,20.63
2022-09-21T09:40:58.156Z,20.61
2022-09-21T09:42:00.638Z,20.59
2022-09-21T09:43:04.843Z,20.62
2022-09-21T09:44:07.440Z,20.54
2022-09-21T09:45:09.955Z,20.74
2022-09-21T09:46:13.663Z,20.97
2022-09-21T09:47:16.387Z,20.70
2022-09-21T09:48:18.832Z,20.70
2022-09-21T09:49:21.309Z,20.81
2022-09-21T09:50:24.105Z,20.86
2022-09-21T09:51:26.544Z,20.81
2022-09-21T09:52:28.994Z,20.74
2022-09-21T09:53:31.474Z,20.43
2022-09-21T09:54:34.031Z,20.16
2022-09-21T09:55:36.533Z,19.93
2022-09-21T09:56:39.035Z,19.73
2022-09-21T09:57:41.487Z,19.60
2022-09-21T09:58:43.940Z,19.56
2022-09-21T09:59:49.372Z,19.76
2022-09-21T10:00:51.117Z,19.86
2022-09-21T10:01:53.605Z,20.01
2022-09-21T10:02:56.137Z,20.23
2022-09-21T10:03:58.683Z,20.43
2022-09-21T10:05:01.599Z,20.42
2022-09-21T10:06:04.425Z,20.60
2022-09-21T10:07:06.880Z,20.78
2022-09-21T10:08:09.354Z,20.77
2022-09-21T10:09:11.864Z,20.94
2022-09-21T10:10:14.715Z,21.27
2022-09-21T10:11:17.221Z,21.50
2022-09-21T10:12:19.662Z,21.65
2022-09-21T10:13:22.152Z,21.67
2022-09-21T10:14:24.624Z,21.49
2022-09-21T10:15:27.166Z,21.50
2022-09-21T10:16:29.883Z,21.76
2022-09-21T10:17:32.402Z,22.01
2022-09-21T10:18:34.846Z,22.26
2022-09-21T10:19:37.288Z,22.37
2022-09-21T10:20:39.935Z,22.40
2022-09-21T10:21:42.408Z,22.59
2022-09-21T10:22:44.867Z,22.69
2022-09-21T10:23:47.322Z,22.70
2022-09-21T10:24:49.767Z,22.51
2022-09-21T10:25:52.308Z,22.01
2022-09-21T10:26:55.061Z,21.89
2022-09-21T10:27:57.500Z,21.86
2022-09-21T10:28:59.945Z,21.80
2022-09-21T10:30:02.722Z,21.79
2022-09-21T10:31:05.206Z,21.74
2022-09-21T10:32:12.362Z,20.87
2022-09-21T10:33:12.134Z,20.25
2022-09-21T10:34:14.616Z,20.47
2022-09-21T10:35:17.103Z,20.60
2022-09-21T10:36:19.660Z,20.47
2022-09-21T10:37:22.156Z,20.58
2022-09-21T10:38:24.606Z,20.51
2022-09-21T10:39:27.100Z,20.64
2022-09-21T10:40:29.687Z,20.76
2022-09-21T10:41:32.191Z,20.65
2022-09-21T10:42:34.810Z,20.86
2022-09-21T10:43:41.207Z,21.18
2022-09-21T10:44:41.669Z,21.29
2022-09-21T10:45:44.189Z,21.57
2022-09-21T10:46:47.026Z,21.57
2022-09-21T10:47:49.616Z,21.89
2022-09-21T10:48:52.059Z,22.02
2022-09-21T10:49:54.500Z,21.95
2022-09-21T10:50:57.238Z,22.10
2022-09-21T10:51:59.677Z,22.15
2022-09-21T10:53:02.154Z,21.42
2022-09-21T10:54:04.591Z,21.03
2022-09-21T10:55:07.039Z,21.05
2022-09-21T10:56:15.916Z,21.26
2022-09-21T10:57:14.348Z,21.35
2022-09-21T10:58:16.851Z,21.10
2022-09-21T10:59:19.296Z,20.25
2022-09-21T11:00:22.244Z,20.59
2022-09-21T11:01:25.023Z,20.65
2022-09-21T11:02:27.673Z,20.00
2022-09-21T11:03:30.283Z,19.51
2022-09-21T11:04:32.756Z,19.54
2022-09-21T11:05:35.196Z,19.85
2022-09-21T11:06:37.947Z,19.84
2022-09-21T11:07:40.389Z,20.24
2022-09-21T11:08:42.924Z,20.49
2022-09-21T11:09:45.446Z,20.50
2022-09-21T11:10:47.986Z,20.64
2022-09-21T11:11:50.483Z,20.77
2022-09-21T11:12:52.949Z,20.74
2022-09-21T11:13:55.510Z,20.75
2022-09-21T11:14:57.974Z,20.75
2022-09-21T11:16:00.500Z,20.68
2022-09-21T11:17:03.122Z,20.57
2022-09-21T11:18:05.547Z,20.32
2022-09-21T11:19:08.036Z,20.24
2022-09-21T11:20:11.465Z,19.73
2022-09-21T11:21:14.110Z,19.53
2022-09-21T11:22:16.559Z,19.63
2022-09-21T11:23:19.002Z,19.53
2022-09-21T11:24:21.489Z,19.48
2022-09-21T11:25:24.186Z,19.41
2022-09-21T11:26:26.836Z,19.35
2022-09-21T11:27:29.283Z,19.25
2022-09-21T11:28:31.730Z,19.02
2022-09-21T11:29:34.201Z,18.98
2022-09-21T11:30:36.875Z,18.63
2022-09-21T11:31:39.390Z,18.64
2022-09-21T11:32:41.877Z,18.60
2022-09-21T11:33:44.315Z,18.51
2022-09-21T11:34:46.779Z,18.45
2022-09-21T11:35:49.217Z,18.24
2022-09-21T11:36:51.962Z,18.24
2022-09-21T11:37:54.423Z,18.09
2022-09-21T11:38:56.854Z,17.94
2022-09-21T11:39:59.436Z,17.79
2022-09-21T11:41:02.006Z,17.66
2022-09-21T11:42:04.447Z,17.56
2022-09-21T11:43:06.889Z,17.45
2022-09-21T11:44:11.658Z,17.37
2022-09-21T11:45:13.766Z,17.24
2022-09-21T11:46:16.336Z,17.31
2022-09-21T11:47:18.853Z,17.32
2022-09-21T11:48:21.293Z,17.66
2022-09-21T11:49:23.723Z,18.06
2022-09-21T11:50:30.640Z,18.44
2022-09-21T11:51:30.777Z,18.71
2022-09-21T11:52:33.343Z,18.92
2022-09-21T11:53:35.791Z,19.29
2022-09-21T11:54:38.222Z,19.57
2022-09-21T11:55:41.093Z,19.81
2022-09-21T11:56:43.640Z,19.81
2022-09-21T11:57:46.091Z,19.89
2022-09-21T11:58:51.520Z,19.88
2022-09-21T11:59:52.908Z,19.92
2022-09-21T12:00:55.567Z,19.89
2022-09-21T12:01:58.099Z,20.06
2022-09-21T12:03:00.594Z,20.20
2022-09-21T12:04:03.054Z,20.31
2022-09-21T12:05:05.487Z,20.41
2022-09-21T12:06:08.559Z,20.55
2022-09-21T12:07:10.997Z,20.65
2022-09-21T12:08:13.436Z,20.46
2022-09-21T12:09:15.937Z,20.13
2022-09-21T12:10:18.570Z,20.28
2022-09-21T12:11:21.035Z,20.25
2022-09-21T12:12:23.474Z,20.13
2022-09-21T12:13:25.915Z,20.34
2022-09-21T12:14:28.390Z,20.31
2022-09-21T12:15:30.934Z,20.33
2022-09-21T12:16:33.492Z,20.31
2022-09-21T12:17:36.080Z,20.34
2022-09-21T12:18:40.420Z,20.25
2022-09-21T12:19:42.868Z,19.95
2022-09-21T12:20:45.607Z,19.79
2022-09-21T12:21:48.091Z,19.76
2022-09-21T12:22:50.525Z,19.71
2022-09-21T12:23:52.967Z,19.46
2022-09-21T12:24:55.437Z,19.14
2022-09-21T12:25:57.931Z,19.02
2022-09-21T12:27:00.753Z,18.98
2022-09-21T12:28:03.401Z,19.01
2022-09-21T12:29:05.981Z,19.15
2022-09-21T12:30:08.742Z,19.18
2022-09-21T12:31:11.228Z,19.25
2022-09-21T12:32:13.763Z,19.28
2022-09-21T12:33:16.309Z,19.39
2022-09-21T12:34:18.760Z,19.28
2022-09-21T12:35:21.340Z,19.20
2022-09-21T12:36:24.085Z,19.11
2022-09-21T12:37:26.547Z,18.98
2022-09-21T12:38:29.032Z,18.68
2022-09-21T12:39:31.530Z,18.54
2022-09-21T12:40:34.216Z,18.23
2022-09-21T12:41:37.109Z,18.00
2022-09-21T12:42:39.889Z,17.99
2022-09-21T12:43:42.387Z,17.88
2022-09-21T12:44:45.993Z,17.93
2022-09-21T12:45:48.811Z,17.68
2022-09-21T12:46:53.516Z,17.84
2022-09-21T12:47:55.838Z,18.09
2022-09-21T12:48:58.279Z,17.97
2022-09-21T12:50:00.728Z,18.07
2022-09-21T12:51:06.019Z,18.29
2022-09-21T12:52:07.518Z,18.62
2022-09-21T12:53:09.983Z,18.89
2022-09-21T12:54:12.418Z,19.14
2022-09-21T12:55:16.965Z,19.26
2022-09-21T12:56:19.444Z,19.44
2022-09-21T12:57:40.739Z,19.65
2022-09-21T12:58:26.450Z,19.73
2022-09-21T12:59:28.903Z,19.88
2022-09-21T13:00:31.436Z,19.93
2022-09-21T13:01:33.973Z,19.81
2022-09-21T13:02:36.957Z,19.83
2022-09-21T13:03:39.731Z,19.97
2022-09-21T13:04:42.168Z,20.00
2022-09-21T13:05:44.620Z,20.23
2022-09-21T13:06:47.361Z,20.39
2022-09-21T13:07:49.961Z,20.50
2022-09-21T13:08:52.430Z,20.59
2022-09-21T13:09:54.866Z,20.60
2022-09-21T13:10:57.708Z,20.83
2022-09-21T13:12:00.154Z,21.00
2022-09-21T13:13:02.692Z,20.92
2022-09-21T13:14:05.228Z,20.85
2022-09-21T13:15:07.655Z,20.68
2022-09-21T13:16:10.525Z,20.39
2022-09-21T13:17:13.033Z,20.33
2022-09-21T13:18:15.471Z,20.40
2022-09-21T13:19:17.969Z,20.43
2022-09-21T13:20:20.529Z,20.52
2022-09-21T13:21:23.002Z,20.62
2022-09-21T13:22:25.448Z,20.61
2022-09-21T13:23:27.884Z,20.57
2022-09-21T13:24:30.387Z,20.46
2022-09-21T13:25:32.929Z,20.44
2022-09-21T13:26:35.584Z,20.28
2022-09-21T13:27:38.008Z,19.74
2022-09-21T13:28:40.451Z,19.58
2022-09-21T13:29:42.939Z,19.67